Rejestracja

Wszystkie dane podawane są w czasie UTC za wyjątkiem miejsc gdzie jest jednoznacznie podane, że jest inaczej. Dane podawane w serwisie mają charakter informacyjny!!!
Informacje w sprawie dostępu do serwisu pod numerem tel. +48 261-828-138
Informacja dla żołnierzy i pracowników wojska: Prosimy o niezwłoczną zmianę adresu e-mail w profilu użytkownika na pocztę w domenie @ron.mil.pl

Aktualna Pogoda
 
Pogoda w Polsce
7°C Szczecin 2°C Suwałki 4°C Warszawa 4°C Poznan
6°C Opole 5°C Kraków 3°C Rzeszów
Więcej miast w Polsce

Pogoda w Europie
6°C Berlin 9°C Paryz 7°C Bruksela 3°C Oslo
4°C Praga 8°C Zagrzeb
Więcej miast w Europie

Metary wojskowe test
METAR EPCE 182130Z 23011KT 9999 OVC034 04/01 Q1012 RMK 038 080 8/8=
METAR EPDA 182130Z 22011KT 190V270 9999 FEW041 OVC055 06/00 Q1012 RMK 055 070 8/1=
METAR EPDE 182130Z 24008KT 9999 NSC 03/M00 Q1020 RMK 028 081 0/0=
METAR EPIR 182100Z 23014KT 9999 NSC 04/M02 Q1016 RMK 043 063 3/3=
METAR EPKS 182130Z 23009KT 9999 SCT100 05/00 Q1018 RMK 045 075 4/4=
METAR EPLK 182130Z 22008KT 9999 NSC 02/M01 Q1019 RMK 022 081 1/1=
METAR EPLY 182100Z 22006KT 9999 NSC 03/M00 Q1018 RMK 028 080 0/0=
METAR EPMB 182100Z 26014KT 9999 FEW200 05/00 Q1013 RMK 045 073 1/1=
METAR EPMI 182100Z 24010KT 9999 BKN040 05/M01 Q1015 RMK 050 065 5/5=
METAR EPMM 182130Z 23009KT 9999 OVC060 02/00 Q1018 RMK 020 088 8/8=
METAR EPNA 181830Z 24012KT 9999 BKN050 05/M02 Q1015 RMK 054 058 7/7=
METAR EPOK 182130Z 25013G23KT 9999 -SHRA SCT038CB 05/00 Q1011 RMK 050 072 4/4=
METAR EPPR 182130Z 21004KT -RA SCT055 04/M00 Q1013 RMK 038 075 4/4=
METAR EPPW 182130Z 25010KT 9999 NSC 04/M01 Q1017 RMK 040 071 4/4=
METAR EPSN 182130Z 24012KT 9999 BKN050 06/00 Q1014 RMK 055 068 6/6=
METAR EPTM 182100Z 19004KT CAVOK 02/00 Q1020 RMK 022 087 0/0=


 

Prawa autorskie©2007 SSH SZ RP. Wszelkie prawa zastrzeżone.